sensor_id;sensor_type;location;lat;lon;timestamp;P1;durP1;ratioP1;P2;durP2;ratioP2
16385;SDS011;8302;51.154;4.456;2022-11-13T18:10:03;13.07;;;10.57;;
16385;SDS011;8302;51.154;4.456;2022-11-13T18:12:50;13.10;;;9.88;;
16385;SDS011;8302;51.154;4.456;2022-11-13T18:15:37;15.02;;;9.50;;
16385;SDS011;8302;51.154;4.456;2022-11-13T18:18:23;13.02;;;10.23;;
16385;SDS011;8302;51.154;4.456;2022-11-13T18:21:10;17.52;;;13.55;;
16385;SDS011;8302;51.154;4.456;2022-11-13T18:24:08;14.95;;;11.05;;
16385;SDS011;8302;51.154;4.456;2022-11-13T18:26:56;14.32;;;9.57;;
16385;SDS011;8302;51.154;4.456;2022-11-13T18:29:43;12.13;;;9.05;;
16385;SDS011;8302;51.154;4.456;2022-11-13T18:32:29;18.55;;;10.57;;
16385;SDS011;8302;51.154;4.456;2022-11-13T18:35:15;10.77;;;6.90;;
16385;SDS011;8302;51.154;4.456;2022-11-13T18:38:02;14.23;;;7.70;;
16385;SDS011;8302;51.154;4.456;2022-11-13T18:40:48;13.73;;;8.23;;
16385;SDS011;8302;51.154;4.456;2022-11-13T18:43:35;12.02;;;8.00;;
16385;SDS011;8302;51.154;4.456;2022-11-13T18:46:22;15.27;;;8.30;;
16385;SDS011;8302;51.154;4.456;2022-11-13T18:49:08;14.20;;;8.68;;
16385;SDS011;8302;51.154;4.456;2022-11-13T18:51:56;11.18;;;7.78;;
16385;SDS011;8302;51.154;4.456;2022-11-13T18:54:42;12.57;;;8.57;;
16385;SDS011;8302;51.154;4.456;2022-11-13T18:57:29;10.90;;;7.95;;
16385;SDS011;8302;51.154;4.456;2022-11-13T19:00:17;11.75;;;8.60;;
16385;SDS011;8302;51.154;4.456;2022-11-13T19:03:03;10.50;;;8.10;;
16385;SDS011;8302;51.154;4.456;2022-11-13T19:05:50;12.25;;;8.48;;
16385;SDS011;8302;51.154;4.456;2022-11-13T19:08:36;10.80;;;8.63;;
16385;SDS011;8302;51.154;4.456;2022-11-13T19:11:25;13.88;;;9.00;;
16385;SDS011;8302;51.154;4.456;2022-11-13T19:14:12;12.88;;;8.70;;
16385;SDS011;8302;51.154;4.456;2022-11-13T19:17:00;11.63;;;9.07;;
16385;SDS011;8302;51.154;4.456;2022-11-13T19:19:46;14.18;;;8.70;;
16385;SDS011;8302;51.154;4.456;2022-11-13T19:22:32;12.40;;;6.30;;
16385;SDS011;8302;51.154;4.456;2022-11-13T19:25:18;10.05;;;6.35;;
16385;SDS011;8302;51.154;4.456;2022-11-13T19:28:05;6.30;;;3.17;;
16385;SDS011;8302;51.154;4.456;2022-11-13T19:30:51;0.95;;;0.82;;
16385;SDS011;8302;51.154;4.456;2022-11-13T19:33:40;3.20;;;2.10;;
16385;SDS011;8302;51.154;4.456;2022-11-13T19:36:27;5.80;;;2.10;;
16385;SDS011;8302;51.154;4.456;2022-11-13T19:39:14;6.30;;;2.83;;
16385;SDS011;8302;51.154;4.456;2022-11-13T19:42:00;3.78;;;2.33;;
16385;SDS011;8302;51.154;4.456;2022-11-13T19:44:47;2.13;;;1.58;;
16385;SDS011;8302;51.154;4.456;2022-11-13T19:47:33;2.13;;;1.67;;
16385;SDS011;8302;51.154;4.456;2022-11-13T19:50:21;1.75;;;1.40;;
16385;SDS011;8302;51.154;4.456;2022-11-13T19:53:07;4.40;;;1.77;;
16385;SDS011;8302;51.154;4.456;2022-11-13T19:55:53;4.90;;;2.90;;
16385;SDS011;8302;51.154;4.456;2022-11-13T19:58:40;3.67;;;2.20;;
16385;SDS011;8302;51.154;4.456;2022-11-13T20:01:28;10.18;;;6.68;;
16385;SDS011;8302;51.154;4.456;2022-11-13T20:04:16;9.75;;;7.40;;
16385;SDS011;8302;51.154;4.456;2022-11-13T20:07:03;11.63;;;8.25;;
16385;SDS011;8302;51.154;4.456;2022-11-13T20:09:51;11.75;;;7.55;;
16385;SDS011;8302;51.154;4.456;2022-11-13T20:12:37;15.25;;;7.88;;
16385;SDS011;8302;51.154;4.456;2022-11-13T20:15:23;9.40;;;7.18;;
16385;SDS011;8302;51.154;4.456;2022-11-13T20:18:10;10.82;;;7.22;;
16385;SDS011;8302;51.154;4.456;2022-11-13T20:20:58;12.15;;;8.02;;
16385;SDS011;8302;51.154;4.456;2022-11-13T20:23:46;11.10;;;7.50;;
16385;SDS011;8302;51.154;4.456;2022-11-13T20:26:32;11.20;;;7.60;;
16385;SDS011;8302;51.154;4.456;2022-11-13T20:29:18;9.07;;;7.25;;
16385;SDS011;8302;51.154;4.456;2022-11-13T20:32:05;10.55;;;7.30;;
16385;SDS011;8302;51.154;4.456;2022-11-13T20:34:51;14.35;;;7.53;;
16385;SDS011;8302;51.154;4.456;2022-11-13T20:37:37;11.95;;;8.15;;
16385;SDS011;8302;51.154;4.456;2022-11-13T20:40:25;11.13;;;7.82;;
16385;SDS011;8302;51.154;4.456;2022-11-13T20:43:11;11.05;;;7.85;;
16385;SDS011;8302;51.154;4.456;2022-11-13T20:46:01;9.98;;;6.65;;
16385;SDS011;8302;51.154;4.456;2022-11-13T20:48:48;11.98;;;7.10;;
16385;SDS011;8302;51.154;4.456;2022-11-13T20:51:34;10.77;;;7.47;;
16385;SDS011;8302;51.154;4.456;2022-11-13T20:54:21;8.18;;;5.18;;
16385;SDS011;8302;51.154;4.456;2022-11-13T20:57:09;8.32;;;6.68;;
16385;SDS011;8302;51.154;4.456;2022-11-13T20:59:55;9.57;;;7.10;;
16385;SDS011;8302;51.154;4.456;2022-11-13T21:02:42;8.98;;;6.53;;
16385;SDS011;8302;51.154;4.456;2022-11-13T21:05:29;11.35;;;6.80;;
16385;SDS011;8302;51.154;4.456;2022-11-13T21:08:15;10.75;;;6.85;;
16385;SDS011;8302;51.154;4.456;2022-11-13T21:11:02;8.70;;;6.35;;
16385;SDS011;8302;51.154;4.456;2022-11-13T21:13:51;10.90;;;6.43;;
16385;SDS011;8302;51.154;4.456;2022-11-13T21:16:39;6.43;;;3.58;;
16385;SDS011;8302;51.154;4.456;2022-11-13T21:19:25;5.30;;;3.03;;
16385;SDS011;8302;51.154;4.456;2022-11-13T21:22:12;10.68;;;6.20;;
16385;SDS011;8302;51.154;4.456;2022-11-13T21:24:59;7.50;;;5.13;;
16385;SDS011;8302;51.154;4.456;2022-11-13T21:27:45;9.68;;;5.80;;
16385;SDS011;8302;51.154;4.456;2022-11-13T21:30:33;7.03;;;5.30;;
16385;SDS011;8302;51.154;4.456;2022-11-13T21:33:19;8.93;;;6.53;;
16385;SDS011;8302;51.154;4.456;2022-11-13T21:36:06;8.05;;;5.90;;
16385;SDS011;8302;51.154;4.456;2022-11-13T21:38:53;8.07;;;5.43;;
16385;SDS011;8302;51.154;4.456;2022-11-13T21:41:40;8.68;;;5.18;;
16385;SDS011;8302;51.154;4.456;2022-11-13T21:44:26;8.35;;;6.07;;
16385;SDS011;8302;51.154;4.456;2022-11-13T21:47:14;7.75;;;6.05;;
16385;SDS011;8302;51.154;4.456;2022-11-13T21:50:00;12.45;;;6.72;;
16385;SDS011;8302;51.154;4.456;2022-11-13T21:52:46;8.95;;;6.63;;
16385;SDS011;8302;51.154;4.456;2022-11-13T21:55:33;10.60;;;6.88;;
16385;SDS011;8302;51.154;4.456;2022-11-13T21:58:27;13.25;;;5.88;;
16385;SDS011;8302;51.154;4.456;2022-11-13T22:01:14;8.55;;;6.50;;
16385;SDS011;8302;51.154;4.456;2022-11-13T22:04:02;10.18;;;6.90;;
16385;SDS011;8302;51.154;4.456;2022-11-13T22:06:49;12.60;;;7.15;;
16385;SDS011;8302;51.154;4.456;2022-11-13T22:09:35;9.38;;;6.40;;
16385;SDS011;8302;51.154;4.456;2022-11-13T22:12:21;8.52;;;5.68;;
16385;SDS011;8302;51.154;4.456;2022-11-13T22:15:08;10.15;;;6.63;;
16385;SDS011;8302;51.154;4.456;2022-11-13T22:17:55;10.20;;;6.20;;
16385;SDS011;8302;51.154;4.456;2022-11-13T22:20:42;8.48;;;6.75;;
16385;SDS011;8302;51.154;4.456;2022-11-13T22:23:29;8.73;;;7.32;;
16385;SDS011;8302;51.154;4.456;2022-11-13T22:26:16;10.88;;;7.15;;
16385;SDS011;8302;51.154;4.456;2022-11-13T22:29:03;10.95;;;7.28;;
16385;SDS011;8302;51.154;4.456;2022-11-13T22:31:49;12.13;;;7.60;;
16385;SDS011;8302;51.154;4.456;2022-11-13T22:34:35;10.70;;;7.28;;
16385;SDS011;8302;51.154;4.456;2022-11-13T22:37:23;11.27;;;7.35;;
16385;SDS011;8302;51.154;4.456;2022-11-13T22:40:10;7.90;;;6.20;;
16385;SDS011;8302;51.154;4.456;2022-11-13T22:42:56;10.23;;;7.07;;
16385;SDS011;8302;51.154;4.456;2022-11-13T22:45:43;9.63;;;6.68;;
16385;SDS011;8302;51.154;4.456;2022-11-13T22:48:29;7.78;;;5.85;;
16385;SDS011;8302;51.154;4.456;2022-11-13T22:51:17;10.13;;;6.68;;
16385;SDS011;8302;51.154;4.456;2022-11-13T22:54:06;9.80;;;7.25;;
16385;SDS011;8302;51.154;4.456;2022-11-13T22:56:52;12.68;;;7.38;;
16385;SDS011;8302;51.154;4.456;2022-11-13T22:59:40;8.73;;;6.57;;
16385;SDS011;8302;51.154;4.456;2022-11-13T23:02:26;9.27;;;6.40;;
16385;SDS011;8302;51.154;4.456;2022-11-13T23:05:13;11.90;;;7.75;;
16385;SDS011;8302;51.154;4.456;2022-11-13T23:07:59;9.75;;;7.18;;
16385;SDS011;8302;51.154;4.456;2022-11-13T23:10:51;10.00;;;7.40;;
16385;SDS011;8302;51.154;4.456;2022-11-13T23:13:38;10.60;;;6.65;;
16385;SDS011;8302;51.154;4.456;2022-11-13T23:16:25;11.85;;;6.90;;
16385;SDS011;8302;51.154;4.456;2022-11-13T23:19:12;9.40;;;7.55;;
16385;SDS011;8302;51.154;4.456;2022-11-13T23:21:58;10.05;;;7.57;;
16385;SDS011;8302;51.154;4.456;2022-11-13T23:24:45;9.20;;;6.75;;
16385;SDS011;8302;51.154;4.456;2022-11-13T23:27:32;12.75;;;7.30;;
16385;SDS011;8302;51.154;4.456;2022-11-13T23:30:19;11.60;;;7.13;;
16385;SDS011;8302;51.154;4.456;2022-11-13T23:33:05;9.13;;;6.90;;
16385;SDS011;8302;51.154;4.456;2022-11-13T23:35:51;10.13;;;7.30;;
16385;SDS011;8302;51.154;4.456;2022-11-13T23:38:38;9.70;;;6.82;;
16385;SDS011;8302;51.154;4.456;2022-11-13T23:41:25;9.32;;;6.93;;
16385;SDS011;8302;51.154;4.456;2022-11-13T23:44:13;9.38;;;7.18;;
16385;SDS011;8302;51.154;4.456;2022-11-13T23:46:59;10.43;;;7.32;;
16385;SDS011;8302;51.154;4.456;2022-11-13T23:49:46;8.93;;;6.88;;
16385;SDS011;8302;51.154;4.456;2022-11-13T23:52:32;12.00;;;6.80;;
16385;SDS011;8302;51.154;4.456;2022-11-13T23:55:19;10.13;;;7.15;;
16385;SDS011;8302;51.154;4.456;2022-11-13T23:58:08;11.43;;;7.28;;
